CheckWX is a tool to help pilots better visualize weather data.  It is not intended as a substitute for an official pre-flight weather briefing.

23:32:46 UTC

CYRJ METAR
Roberval Airport
Roberval, Canada
Current

33 mins ago

CYRJ 182300Z 30017G23KT 25SM FEW026 OVC046 06/03 A2977 RMK SC1SC8 SC TR SLP090
Observed
Oct-18 @ 23:00 UTC
Wind
  • 300° at 17 KTS
  • Gusting to 23 KTS
Visibility
25 SM
Flight Rules
VFR
Cloud Levels
  • Few at 2,600' AGL
  • Overcast at 4,600' AGL
Temperature
C / 43°F
Dewpoint
C / 37°F
Humidity
81%
Altimeter
29.77" Hg
Pressure
1008.12 hPa
Previous

2 hours ago

CYRJ 182200Z 30015G22KT 25SM FEW023 OVC048 06/03 A2975 RMK SC1SC8 SC TR SLP082
Observed
Oct-18 @ 22:00 UTC
Wind
  • 300° at 15 KTS
  • Gusting to 22 KTS
Visibility
25 SM
Flight Rules
VFR
Cloud Levels
  • Few at 2,300' AGL
  • Overcast at 4,800' AGL
Temperature
C / 43°F
Dewpoint
C / 37°F
Humidity
81%
Altimeter
29.75" Hg
Pressure
1007.42 hPa
Previous

3 hours ago

CYRJ 182100Z 30015KT 40SM FEW021 OVC045 07/04 A2972 RMK SC1SC8 SC TR SLP072
Observed
Oct-18 @ 21:00 UTC
Wind
  • 300° at 15 KTS
Visibility
40 SM
Flight Rules
VFR
Cloud Levels
  • Few at 2,100' AGL
  • Overcast at 4,500' AGL
Temperature
C / 45°F
Dewpoint
C / 39°F
Humidity
81%
Altimeter
29.72" Hg
Pressure
1006.42 hPa